Paicines, California
Current Conditions -  °F | °C
As of 10:55 PM on Monday 20 Oct 2014 (Local Time) from KCVH Reporting Station
Clear Clear  
Wind Chill: 55°   Ceiling: Unl
Heat Index: 55°   Visibility: 10mi
Dew Point: 55°   Wind: 0mph
Humidity: 100%   Direction: NA
Pressure: 30.06"   Gusts: NA
Location:  36.73°N, 121.28°W
Report Text: KCVH 210555Z AUTO 00000KT 10SM CLR 13/13 A3006 RMK AO1
Loading
Personal Weather Stations






























Interactive Weather Map
Tropical Storm Tracking
New forecast layout! Learn more

10-Day Weather Forecast

Advertisements
Track Severe Weather on mobile